sensor_id;sensor_type;location;lat;lon;timestamp;temperature;humidity
22212;DHT22;11275;52.488;13.462;2023-03-01T00:01:31;1.70;99.90
22212;DHT22;11275;52.488;13.462;2023-03-01T00:03:57;1.70;99.90
22212;DHT22;11275;52.488;13.462;2023-03-01T00:06:24;1.70;99.90
22212;DHT22;11275;52.488;13.462;2023-03-01T00:08:50;1.70;99.90
22212;DHT22;11275;52.488;13.462;2023-03-01T00:11:17;1.70;99.90
22212;DHT22;11275;52.488;13.462;2023-03-01T00:13:43;1.70;99.90
22212;DHT22;11275;52.488;13.462;2023-03-01T00:16:13;1.60;99.90
22212;DHT22;11275;52.488;13.462;2023-03-01T00:18:39;1.60;99.90
22212;DHT22;11275;52.488;13.462;2023-03-01T00:21:05;1.60;99.90
22212;DHT22;11275;52.488;13.462;2023-03-01T00:23:30;1.60;99.90
22212;DHT22;11275;52.488;13.462;2023-03-01T00:25:56;1.50;99.90
22212;DHT22;11275;52.488;13.462;2023-03-01T00:28:24;1.50;99.90
22212;DHT22;11275;52.488;13.462;2023-03-01T00:30:50;1.50;99.90
22212;DHT22;11275;52.488;13.462;2023-03-01T00:33:15;1.50;99.90
22212;DHT22;11275;52.488;13.462;2023-03-01T00:35:41;1.50;99.90
22212;DHT22;11275;52.488;13.462;2023-03-01T00:38:06;1.40;99.90
22212;DHT22;11275;52.488;13.462;2023-03-01T00:40:33;1.40;99.90
22212;DHT22;11275;52.488;13.462;2023-03-01T00:42:58;1.30;99.90
22212;DHT22;11275;52.488;13.462;2023-03-01T00:45:24;1.20;99.90
22212;DHT22;11275;52.488;13.462;2023-03-01T00:47:52;1.20;99.90
22212;DHT22;11275;52.488;13.462;2023-03-01T00:50:18;1.10;99.90
22212;DHT22;11275;52.488;13.462;2023-03-01T00:52:44;1.20;99.90
22212;DHT22;11275;52.488;13.462;2023-03-01T00:55:09;1.20;99.90
22212;DHT22;11275;52.488;13.462;2023-03-01T00:57:35;1.20;99.90
22212;DHT22;11275;52.488;13.462;2023-03-01T01:00:00;1.20;99.90
22212;DHT22;11275;52.488;13.462;2023-03-01T01:02:26;1.10;99.90
22212;DHT22;11275;52.488;13.462;2023-03-01T01:04:52;1.10;99.90
22212;DHT22;11275;52.488;13.462;2023-03-01T01:07:17;1.20;99.90
22212;DHT22;11275;52.488;13.462;2023-03-01T01:09:45;1.20;99.90
22212;DHT22;11275;52.488;13.462;2023-03-01T01:12:11;1.20;99.90
22212;DHT22;11275;52.488;13.462;2023-03-01T01:14:36;1.20;99.90
22212;DHT22;11275;52.488;13.462;2023-03-01T01:17:02;1.20;99.90
22212;DHT22;11275;52.488;13.462;2023-03-01T01:19:27;1.20;99.90
22212;DHT22;11275;52.488;13.462;2023-03-01T01:21:53;1.20;99.90
22212;DHT22;11275;52.488;13.462;2023-03-01T01:24:18;1.20;99.90
22212;DHT22;11275;52.488;13.462;2023-03-01T01:26:44;1.20;99.90
22212;DHT22;11275;52.488;13.462;2023-03-01T01:29:10;1.20;99.90
22212;DHT22;11275;52.488;13.462;2023-03-01T01:31:41;1.10;99.90
22212;DHT22;11275;52.488;13.462;2023-03-01T01:34:08;1.20;99.90
22212;DHT22;11275;52.488;13.462;2023-03-01T01:36:34;1.10;99.90
22212;DHT22;11275;52.488;13.462;2023-03-01T01:39:00;1.10;99.90
22212;DHT22;11275;52.488;13.462;2023-03-01T01:41:26;1.10;99.90
22212;DHT22;11275;52.488;13.462;2023-03-01T01:44:12;1.10;99.90
22212;DHT22;11275;52.488;13.462;2023-03-01T01:46:41;1.10;99.90
22212;DHT22;11275;52.488;13.462;2023-03-01T01:51:43;1.10;99.90
22212;DHT22;11275;52.488;13.462;2023-03-01T01:54:21;1.10;99.90
22212;DHT22;11275;52.488;13.462;2023-03-01T01:56:52;1.10;99.90
22212;DHT22;11275;52.488;13.462;2023-03-01T01:59:18;1.10;99.90
22212;DHT22;11275;52.488;13.462;2023-03-01T02:01:44;1.10;99.90
22212;DHT22;11275;52.488;13.462;2023-03-01T02:04:09;1.00;99.90
22212;DHT22;11275;52.488;13.462;2023-03-01T02:06:42;1.00;99.90
22212;DHT22;11275;52.488;13.462;2023-03-01T02:09:14;1.00;99.90
22212;DHT22;11275;52.488;13.462;2023-03-01T02:11:40;1.00;99.90
22212;DHT22;11275;52.488;13.462;2023-03-01T02:14:06;1.10;99.90
22212;DHT22;11275;52.488;13.462;2023-03-01T02:16:32;1.00;99.90
22212;DHT22;11275;52.488;13.462;2023-03-01T02:18:58;1.00;99.90
22212;DHT22;11275;52.488;13.462;2023-03-01T02:24:04;0.90;99.90
22212;DHT22;11275;52.488;13.462;2023-03-01T02:26:40;0.90;99.90
22212;DHT22;11275;52.488;13.462;2023-03-01T02:29:07;0.80;99.90
22212;DHT22;11275;52.488;13.462;2023-03-01T02:31:33;0.70;99.90
22212;DHT22;11275;52.488;13.462;2023-03-01T02:34:12;0.70;99.90
22212;DHT22;11275;52.488;13.462;2023-03-01T02:37:20;0.70;99.90
22212;DHT22;11275;52.488;13.462;2023-03-01T02:39:31;0.70;99.90
22212;DHT22;11275;52.488;13.462;2023-03-01T02:42:01;0.70;99.90
22212;DHT22;11275;52.488;13.462;2023-03-01T02:44:27;0.70;99.90
22212;DHT22;11275;52.488;13.462;2023-03-01T02:46:53;0.70;99.90
22212;DHT22;11275;52.488;13.462;2023-03-01T02:49:28;0.70;99.90
22212;DHT22;11275;52.488;13.462;2023-03-01T02:54:49;0.60;99.90
22212;DHT22;11275;52.488;13.462;2023-03-01T02:57:15;0.60;99.90
22212;DHT22;11275;52.488;13.462;2023-03-01T02:59:41;0.60;99.90
22212;DHT22;11275;52.488;13.462;2023-03-01T03:02:16;0.70;99.90
22212;DHT22;11275;52.488;13.462;2023-03-01T03:04:46;0.70;99.90
22212;DHT22;11275;52.488;13.462;2023-03-01T03:07:11;0.60;99.90
22212;DHT22;11275;52.488;13.462;2023-03-01T03:09:37;0.60;99.90
22212;DHT22;11275;52.488;13.462;2023-03-01T03:12:02;0.60;99.90
22212;DHT22;11275;52.488;13.462;2023-03-01T03:14:28;0.60;99.90
22212;DHT22;11275;52.488;13.462;2023-03-01T03:16:53;0.60;99.90
22212;DHT22;11275;52.488;13.462;2023-03-01T03:19:19;0.60;99.90
22212;DHT22;11275;52.488;13.462;2023-03-01T03:21:44;0.50;99.90
22212;DHT22;11275;52.488;13.462;2023-03-01T03:24:10;0.50;99.90
22212;DHT22;11275;52.488;13.462;2023-03-01T03:26:35;0.40;99.90
22212;DHT22;11275;52.488;13.462;2023-03-01T03:29:01;0.50;99.90
22212;DHT22;11275;52.488;13.462;2023-03-01T03:31:27;0.40;99.90
22212;DHT22;11275;52.488;13.462;2023-03-01T03:33:52;0.40;99.90
22212;DHT22;11275;52.488;13.462;2023-03-01T03:36:20;0.30;99.90
22212;DHT22;11275;52.488;13.462;2023-03-01T03:38:45;0.30;99.90
22212;DHT22;11275;52.488;13.462;2023-03-01T03:41:11;0.40;99.90
22212;DHT22;11275;52.488;13.462;2023-03-01T03:43:38;0.40;99.90
22212;DHT22;11275;52.488;13.462;2023-03-01T03:46:04;0.40;99.90
22212;DHT22;11275;52.488;13.462;2023-03-01T03:48:33;0.30;99.90
22212;DHT22;11275;52.488;13.462;2023-03-01T03:50:58;0.30;99.90
22212;DHT22;11275;52.488;13.462;2023-03-01T03:53:25;0.20;99.90
22212;DHT22;11275;52.488;13.462;2023-03-01T03:55:51;0.30;99.90
22212;DHT22;11275;52.488;13.462;2023-03-01T03:58:17;0.30;99.90
22212;DHT22;11275;52.488;13.462;2023-03-01T04:00:45;0.20;99.90
22212;DHT22;11275;52.488;13.462;2023-03-01T04:03:11;0.20;99.90
22212;DHT22;11275;52.488;13.462;2023-03-01T04:05:37;0.20;99.90
22212;DHT22;11275;52.488;13.462;2023-03-01T04:08:03;0.30;99.90
22212;DHT22;11275;52.488;13.462;2023-03-01T04:10:33;0.30;99.90
22212;DHT22;11275;52.488;13.462;2023-03-01T04:12:59;0.20;99.90
22212;DHT22;11275;52.488;13.462;2023-03-01T04:15:25;0.10;99.90
22212;DHT22;11275;52.488;13.462;2023-03-01T04:17:51;0.00;99.90
22212;DHT22;11275;52.488;13.462;2023-03-01T04:20:19;0.00;99.90
22212;DHT22;11275;52.488;13.462;2023-03-01T04:23:00;0.10;99.90
22212;DHT22;11275;52.488;13.462;2023-03-01T04:25:51;0.00;99.90
22212;DHT22;11275;52.488;13.462;2023-03-01T04:28:30;-0.10;99.90
22212;DHT22;11275;52.488;13.462;2023-03-01T04:30:56;0.00;99.90
22212;DHT22;11275;52.488;13.462;2023-03-01T04:33:22;-0.10;99.90
22212;DHT22;11275;52.488;13.462;2023-03-01T04:35:48;0.00;99.90
22212;DHT22;11275;52.488;13.462;2023-03-01T04:38:17;0.00;99.90
22212;DHT22;11275;52.488;13.462;2023-03-01T04:40:45;0.00;99.90
22212;DHT22;11275;52.488;13.462;2023-03-01T04:43:11;0.00;99.90
22212;DHT22;11275;52.488;13.462;2023-03-01T04:45:39;0.00;99.90
22212;DHT22;11275;52.488;13.462;2023-03-01T04:48:05;0.00;99.90
22212;DHT22;11275;52.488;13.462;2023-03-01T04:50:31;0.00;99.90
22212;DHT22;11275;52.488;13.462;2023-03-01T04:52:56;-0.10;99.90
22212;DHT22;11275;52.488;13.462;2023-03-01T04:55:26;0.00;99.90
22212;DHT22;11275;52.488;13.462;2023-03-01T04:57:51;-0.10;99.90
22212;DHT22;11275;52.488;13.462;2023-03-01T05:00:18;0.00;99.90
22212;DHT22;11275;52.488;13.462;2023-03-01T05:02:50;0.00;99.90
22212;DHT22;11275;52.488;13.462;2023-03-01T05:05:19;0.00;99.90
22212;DHT22;11275;52.488;13.462;2023-03-01T05:07:44;0.00;99.90
22212;DHT22;11275;52.488;13.462;2023-03-01T05:10:10;0.00;99.90
22212;DHT22;11275;52.488;13.462;2023-03-01T05:12:35;-0.10;99.90
22212;DHT22;11275;52.488;13.462;2023-03-01T05:15:03;-0.20;99.90
22212;DHT22;11275;52.488;13.462;2023-03-01T05:17:33;-0.20;99.90
22212;DHT22;11275;52.488;13.462;2023-03-01T05:19:58;-0.20;99.90
22212;DHT22;11275;52.488;13.462;2023-03-01T05:22:25;-0.10;99.90
22212;DHT22;11275;52.488;13.462;2023-03-01T05:24:50;-0.20;99.90
22212;DHT22;11275;52.488;13.462;2023-03-01T05:27:16;-0.20;99.90
22212;DHT22;11275;52.488;13.462;2023-03-01T05:29:41;-0.20;99.90
22212;DHT22;11275;52.488;13.462;2023-03-01T05:32:07;-0.20;99.90
22212;DHT22;11275;52.488;13.462;2023-03-01T05:34:34;-0.20;99.90
22212;DHT22;11275;52.488;13.462;2023-03-01T05:37:01;-0.20;99.90
22212;DHT22;11275;52.488;13.462;2023-03-01T05:39:27;-0.20;99.90
22212;DHT22;11275;52.488;13.462;2023-03-01T05:41:55;-0.20;99.90
22212;DHT22;11275;52.488;13.462;2023-03-01T05:44:21;-0.20;99.90
22212;DHT22;11275;52.488;13.462;2023-03-01T05:46:47;-0.30;99.90
22212;DHT22;11275;52.488;13.462;2023-03-01T05:49:13;-0.40;99.90
22212;DHT22;11275;52.488;13.462;2023-03-01T05:51:39;-0.40;99.90
22212;DHT22;11275;52.488;13.462;2023-03-01T05:54:04;-0.40;99.90
22212;DHT22;11275;52.488;13.462;2023-03-01T05:56:34;-0.40;99.90
22212;DHT22;11275;52.488;13.462;2023-03-01T05:59:00;-0.40;99.90
22212;DHT22;11275;52.488;13.462;2023-03-01T06:01:26;-0.30;99.90
22212;DHT22;11275;52.488;13.462;2023-03-01T06:03:52;-0.30;99.90
22212;DHT22;11275;52.488;13.462;2023-03-01T06:06:17;-0.20;99.90
22212;DHT22;11275;52.488;13.462;2023-03-01T06:08:43;-0.20;99.90
22212;DHT22;11275;52.488;13.462;2023-03-01T06:11:08;-0.20;99.90
22212;DHT22;11275;52.488;13.462;2023-03-01T06:13:34;-0.20;99.90
22212;DHT22;11275;52.488;13.462;2023-03-01T06:15:59;-0.20;99.90
22212;DHT22;11275;52.488;13.462;2023-03-01T06:18:25;-0.20;99.90
22212;DHT22;11275;52.488;13.462;2023-03-01T06:20:54;-0.10;99.90
22212;DHT22;11275;52.488;13.462;2023-03-01T06:23:20;-0.20;99.90
22212;DHT22;11275;52.488;13.462;2023-03-01T06:25:45;-0.20;99.90
22212;DHT22;11275;52.488;13.462;2023-03-01T06:28:11;-0.30;99.90
22212;DHT22;11275;52.488;13.462;2023-03-01T06:30:36;-0.30;99.90
22212;DHT22;11275;52.488;13.462;2023-03-01T06:33:02;-0.30;99.90
22212;DHT22;11275;52.488;13.462;2023-03-01T06:35:28;-0.30;99.90
22212;DHT22;11275;52.488;13.462;2023-03-01T06:37:56;-0.30;99.90
22212;DHT22;11275;52.488;13.462;2023-03-01T06:40:22;-0.20;99.90
22212;DHT22;11275;52.488;13.462;2023-03-01T06:42:48;-0.10;99.90
22212;DHT22;11275;52.488;13.462;2023-03-01T06:45:15;-0.10;99.90
22212;DHT22;11275;52.488;13.462;2023-03-01T06:47:41;-0.10;99.90
22212;DHT22;11275;52.488;13.462;2023-03-01T06:50:06;-0.20;99.90
22212;DHT22;11275;52.488;13.462;2023-03-01T06:52:32;-0.10;99.90
22212;DHT22;11275;52.488;13.462;2023-03-01T06:54:58;-0.10;99.90
22212;DHT22;11275;52.488;13.462;2023-03-01T06:57:24;-0.10;99.90
22212;DHT22;11275;52.488;13.462;2023-03-01T06:59:49;0.00;99.90
22212;DHT22;11275;52.488;13.462;2023-03-01T07:02:15;-0.10;99.90
22212;DHT22;11275;52.488;13.462;2023-03-01T07:04:40;-0.10;99.90
22212;DHT22;11275;52.488;13.462;2023-03-01T07:07:06;-0.10;99.90
22212;DHT22;11275;52.488;13.462;2023-03-01T07:09:35;-0.10;99.90
22212;DHT22;11275;52.488;13.462;2023-03-01T07:12:00;-0.10;99.90
22212;DHT22;11275;52.488;13.462;2023-03-01T07:14:26;0.00;99.90
22212;DHT22;11275;52.488;13.462;2023-03-01T07:16:52;-0.10;99.90
22212;DHT22;11275;52.488;13.462;2023-03-01T07:19:17;-0.10;99.90
22212;DHT22;11275;52.488;13.462;2023-03-01T07:21:43;-0.10;99.90
22212;DHT22;11275;52.488;13.462;2023-03-01T07:24:08;0.00;99.90
22212;DHT22;11275;52.488;13.462;2023-03-01T07:26:34;0.10;99.90
22212;DHT22;11275;52.488;13.462;2023-03-01T07:29:00;0.20;99.90
22212;DHT22;11275;52.488;13.462;2023-03-01T07:31:26;0.30;99.90
22212;DHT22;11275;52.488;13.462;2023-03-01T07:33:53;0.30;99.90
22212;DHT22;11275;52.488;13.462;2023-03-01T07:36:19;0.50;99.90
22212;DHT22;11275;52.488;13.462;2023-03-01T07:38:45;0.50;99.90
22212;DHT22;11275;52.488;13.462;2023-03-01T07:41:10;0.50;99.90
22212;DHT22;11275;52.488;13.462;2023-03-01T07:43:36;0.60;99.90
22212;DHT22;11275;52.488;13.462;2023-03-01T07:46:01;0.70;99.90
22212;DHT22;11275;52.488;13.462;2023-03-01T07:48:27;0.70;99.90
22212;DHT22;11275;52.488;13.462;2023-03-01T07:50:53;0.80;99.90
22212;DHT22;11275;52.488;13.462;2023-03-01T07:53:19;0.80;99.90
22212;DHT22;11275;52.488;13.462;2023-03-01T07:55:44;0.90;99.90
22212;DHT22;11275;52.488;13.462;2023-03-01T07:58:09;1.00;99.90
22212;DHT22;11275;52.488;13.462;2023-03-01T08:00:35;1.00;99.90
22212;DHT22;11275;52.488;13.462;2023-03-01T08:03:01;1.10;99.90
22212;DHT22;11275;52.488;13.462;2023-03-01T08:05:28;1.10;99.90
22212;DHT22;11275;52.488;13.462;2023-03-01T08:07:53;1.10;99.90
22212;DHT22;11275;52.488;13.462;2023-03-01T08:10:19;1.20;99.90
22212;DHT22;11275;52.488;13.462;2023-03-01T08:12:44;1.20;99.90
22212;DHT22;11275;52.488;13.462;2023-03-01T08:15:10;1.30;99.90
22212;DHT22;11275;52.488;13.462;2023-03-01T08:17:36;1.30;99.90
22212;DHT22;11275;52.488;13.462;2023-03-01T08:20:02;1.40;99.90
22212;DHT22;11275;52.488;13.462;2023-03-01T08:22:29;1.50;99.90
22212;DHT22;11275;52.488;13.462;2023-03-01T08:24:54;1.60;99.90
22212;DHT22;11275;52.488;13.462;2023-03-01T08:27:21;1.60;99.90
22212;DHT22;11275;52.488;13.462;2023-03-01T08:29:46;1.70;99.90
22212;DHT22;11275;52.488;13.462;2023-03-01T08:32:12;1.80;99.90
22212;DHT22;11275;52.488;13.462;2023-03-01T08:34:37;1.90;99.90
22212;DHT22;11275;52.488;13.462;2023-03-01T08:37:03;2.00;99.90
22212;DHT22;11275;52.488;13.462;2023-03-01T08:39:29;2.10;99.90
22212;DHT22;11275;52.488;13.462;2023-03-01T08:41:54;2.30;99.90
22212;DHT22;11275;52.488;13.462;2023-03-01T08:44:20;2.70;99.90
22212;DHT22;11275;52.488;13.462;2023-03-01T08:46:49;3.00;99.90
22212;DHT22;11275;52.488;13.462;2023-03-01T08:49:17;3.50;99.90
22212;DHT22;11275;52.488;13.462;2023-03-01T08:51:43;4.10;99.90
22212;DHT22;11275;52.488;13.462;2023-03-01T08:54:11;4.40;99.90
22212;DHT22;11275;52.488;13.462;2023-03-01T08:56:36;4.00;99.90
22212;DHT22;11275;52.488;13.462;2023-03-01T08:59:02;3.60;99.90
22212;DHT22;11275;52.488;13.462;2023-03-01T09:01:28;3.40;99.90
22212;DHT22;11275;52.488;13.462;2023-03-01T09:03:53;3.30;99.90
22212;DHT22;11275;52.488;13.462;2023-03-01T09:06:19;3.20;99.90
22212;DHT22;11275;52.488;13.462;2023-03-01T09:08:45;3.20;99.90
22212;DHT22;11275;52.488;13.462;2023-03-01T09:11:12;3.20;99.90
22212;DHT22;11275;52.488;13.462;2023-03-01T09:13:38;3.20;99.90
22212;DHT22;11275;52.488;13.462;2023-03-01T09:16:05;3.20;99.90
22212;DHT22;11275;52.488;13.462;2023-03-01T09:18:31;3.20;99.90
22212;DHT22;11275;52.488;13.462;2023-03-01T09:21:07;3.30;99.90
22212;DHT22;11275;52.488;13.462;2023-03-01T09:23:37;3.30;99.90
22212;DHT22;11275;52.488;13.462;2023-03-01T09:26:07;3.40;99.90
22212;DHT22;11275;52.488;13.462;2023-03-01T09:28:34;3.40;99.90
22212;DHT22;11275;52.488;13.462;2023-03-01T09:31:00;3.40;99.90
22212;DHT22;11275;52.488;13.462;2023-03-01T09:33:26;3.60;99.90
22212;DHT22;11275;52.488;13.462;2023-03-01T09:38:23;3.60;99.90
22212;DHT22;11275;52.488;13.462;2023-03-01T09:40:49;3.70;99.90
22212;DHT22;11275;52.488;13.462;2023-03-01T09:43:26;3.80;99.90
22212;DHT22;11275;52.488;13.462;2023-03-01T09:45:53;3.80;99.90
22212;DHT22;11275;52.488;13.462;2023-03-01T09:48:21;4.00;99.90
22212;DHT22;11275;52.488;13.462;2023-03-01T09:50:48;4.00;99.90
22212;DHT22;11275;52.488;13.462;2023-03-01T09:53:21;4.10;99.90
22212;DHT22;11275;52.488;13.462;2023-03-01T09:58:34;4.20;99.90
22212;DHT22;11275;52.488;13.462;2023-03-01T10:01:23;4.20;99.90
22212;DHT22;11275;52.488;13.462;2023-03-01T10:04:19;4.30;99.90
22212;DHT22;11275;52.488;13.462;2023-03-01T10:06:36;4.40;99.90
22212;DHT22;11275;52.488;13.462;2023-03-01T10:09:13;4.40;99.90
22212;DHT22;11275;52.488;13.462;2023-03-01T10:11:41;4.50;99.90
22212;DHT22;11275;52.488;13.462;2023-03-01T10:14:15;4.50;99.90
22212;DHT22;11275;52.488;13.462;2023-03-01T10:16:48;4.50;99.90
22212;DHT22;11275;52.488;13.462;2023-03-01T10:19:58;4.60;99.90
22212;DHT22;11275;52.488;13.462;2023-03-01T10:22:09;4.70;99.90
22212;DHT22;11275;52.488;13.462;2023-03-01T10:24:37;4.70;99.90
22212;DHT22;11275;52.488;13.462;2023-03-01T10:27:11;4.90;99.90
22212;DHT22;11275;52.488;13.462;2023-03-01T10:30:22;5.00;99.90
22212;DHT22;11275;52.488;13.462;2023-03-01T10:32:28;5.20;99.90
22212;DHT22;11275;52.488;13.462;2023-03-01T10:34:53;5.40;99.90
22212;DHT22;11275;52.488;13.462;2023-03-01T10:37:20;5.40;99.90
22212;DHT22;11275;52.488;13.462;2023-03-01T10:39:57;5.40;99.30
22212;DHT22;11275;52.488;13.462;2023-03-01T10:42:33;5.40;99.20
22212;DHT22;11275;52.488;13.462;2023-03-01T10:45:15;5.40;98.90
22212;DHT22;11275;52.488;13.462;2023-03-01T10:47:41;5.40;98.60
22212;DHT22;11275;52.488;13.462;2023-03-01T10:50:17;5.40;97.50
22212;DHT22;11275;52.488;13.462;2023-03-01T10:52:43;5.30;96.80
22212;DHT22;11275;52.488;13.462;2023-03-01T10:55:27;5.30;96.80
22212;DHT22;11275;52.488;13.462;2023-03-01T11:00:57;5.40;96.40
22212;DHT22;11275;52.488;13.462;2023-03-01T11:03:24;5.40;96.20
22212;DHT22;11275;52.488;13.462;2023-03-01T11:11:06;5.40;95.80
22212;DHT22;11275;52.488;13.462;2023-03-01T11:13:32;5.50;96.00
22212;DHT22;11275;52.488;13.462;2023-03-01T11:15:59;5.60;95.70
22212;DHT22;11275;52.488;13.462;2023-03-01T11:18:24;5.70;95.20
22212;DHT22;11275;52.488;13.462;2023-03-01T11:20:51;5.80;95.60
22212;DHT22;11275;52.488;13.462;2023-03-01T11:23:18;5.90;95.60
22212;DHT22;11275;52.488;13.462;2023-03-01T11:26:05;5.90;95.90
22212;DHT22;11275;52.488;13.462;2023-03-01T11:28:29;6.10;95.40
22212;DHT22;11275;52.488;13.462;2023-03-01T11:30:57;6.20;96.30
22212;DHT22;11275;52.488;13.462;2023-03-01T11:38:52;6.30;93.70
22212;DHT22;11275;52.488;13.462;2023-03-01T11:43:57;6.40;91.60
22212;DHT22;11275;52.488;13.462;2023-03-01T11:46:35;6.30;90.00
22212;DHT22;11275;52.488;13.462;2023-03-01T11:51:50;6.40;93.20
22212;DHT22;11275;52.488;13.462;2023-03-01T11:57:01;6.50;90.60
22212;DHT22;11275;52.488;13.462;2023-03-01T12:11:56;6.70;87.70
22212;DHT22;11275;52.488;13.462;2023-03-01T12:20:02;6.90;90.70
22212;DHT22;11275;52.488;13.462;2023-03-01T12:41:00;7.10;88.70
22212;DHT22;11275;52.488;13.462;2023-03-01T12:49:05;7.10;82.70
22212;DHT22;11275;52.488;13.462;2023-03-01T12:51:33;7.00;81.00
22212;DHT22;11275;52.488;13.462;2023-03-01T12:54:01;7.10;87.20
22212;DHT22;11275;52.488;13.462;2023-03-01T12:56:31;7.20;85.80
22212;DHT22;11275;52.488;13.462;2023-03-01T13:09:09;7.20;80.70
22212;DHT22;11275;52.488;13.462;2023-03-01T13:11:40;7.10;80.80
22212;DHT22;11275;52.488;13.462;2023-03-01T13:16:48;7.10;77.40
22212;DHT22;11275;52.488;13.462;2023-03-01T13:21:43;7.20;80.10
22212;DHT22;11275;52.488;13.462;2023-03-01T13:27:09;7.20;79.80
22212;DHT22;11275;52.488;13.462;2023-03-01T13:29:45;7.20;77.40
22212;DHT22;11275;52.488;13.462;2023-03-01T13:34:53;7.20;73.90
22212;DHT22;11275;52.488;13.462;2023-03-01T13:37:20;7.30;75.50
22212;DHT22;11275;52.488;13.462;2023-03-01T13:39:46;7.30;71.90
22212;DHT22;11275;52.488;13.462;2023-03-01T13:42:32;7.30;73.20
22212;DHT22;11275;52.488;13.462;2023-03-01T13:44:58;7.40;75.50
22212;DHT22;11275;52.488;13.462;2023-03-01T13:47:23;7.30;70.30
22212;DHT22;11275;52.488;13.462;2023-03-01T13:49:51;7.30;69.00
22212;DHT22;11275;52.488;13.462;2023-03-01T13:52:30;7.40;74.20
22212;DHT22;11275;52.488;13.462;2023-03-01T13:54:57;7.40;76.70
22212;DHT22;11275;52.488;13.462;2023-03-01T13:57:24;7.30;69.90
22212;DHT22;11275;52.488;13.462;2023-03-01T13:59:51;7.30;72.20
22212;DHT22;11275;52.488;13.462;2023-03-01T14:02:16;7.30;71.60
22212;DHT22;11275;52.488;13.462;2023-03-01T14:04:42;7.40;76.10
22212;DHT22;11275;52.488;13.462;2023-03-01T14:07:10;7.40;74.40
22212;DHT22;11275;52.488;13.462;2023-03-01T14:09:37;7.40;77.60
22212;DHT22;11275;52.488;13.462;2023-03-01T14:12:22;7.50;77.30
22212;DHT22;11275;52.488;13.462;2023-03-01T14:14:54;7.50;76.40
22212;DHT22;11275;52.488;13.462;2023-03-01T14:19:47;7.50;74.10
22212;DHT22;11275;52.488;13.462;2023-03-01T14:22:20;7.40;74.40
22212;DHT22;11275;52.488;13.462;2023-03-01T14:24:51;7.50;79.40
22212;DHT22;11275;52.488;13.462;2023-03-01T14:27:18;7.50;77.30
22212;DHT22;11275;52.488;13.462;2023-03-01T14:29:44;7.50;75.20
22212;DHT22;11275;52.488;13.462;2023-03-01T14:32:20;7.50;75.30
22212;DHT22;11275;52.488;13.462;2023-03-01T14:34:49;7.50;77.10
22212;DHT22;11275;52.488;13.462;2023-03-01T14:37:26;7.50;78.80
22212;DHT22;11275;52.488;13.462;2023-03-01T14:39:53;7.50;78.30
22212;DHT22;11275;52.488;13.462;2023-03-01T14:42:19;7.60;75.30
22212;DHT22;11275;52.488;13.462;2023-03-01T14:44:46;7.60;75.50
22212;DHT22;11275;52.488;13.462;2023-03-01T14:47:15;7.60;77.20
22212;DHT22;11275;52.488;13.462;2023-03-01T14:49:41;7.60;77.80
22212;DHT22;11275;52.488;13.462;2023-03-01T14:52:07;7.60;76.80
22212;DHT22;11275;52.488;13.462;2023-03-01T14:54:44;7.60;77.90
22212;DHT22;11275;52.488;13.462;2023-03-01T14:59:47;7.60;78.60
22212;DHT22;11275;52.488;13.462;2023-03-01T15:02:17;7.60;79.60
22212;DHT22;11275;52.488;13.462;2023-03-01T15:05:03;7.60;80.70
22212;DHT22;11275;52.488;13.462;2023-03-01T15:07:33;7.60;79.40
22212;DHT22;11275;52.488;13.462;2023-03-01T15:09:59;7.60;78.90
22212;DHT22;11275;52.488;13.462;2023-03-01T15:14:52;7.60;80.50
22212;DHT22;11275;52.488;13.462;2023-03-01T15:19:53;7.70;80.80
22212;DHT22;11275;52.488;13.462;2023-03-01T15:22:19;7.70;83.00
22212;DHT22;11275;52.488;13.462;2023-03-01T15:24:48;7.80;82.80
22212;DHT22;11275;52.488;13.462;2023-03-01T15:27:15;7.80;82.20
22212;DHT22;11275;52.488;13.462;2023-03-01T15:29:42;7.80;82.60
22212;DHT22;11275;52.488;13.462;2023-03-01T15:34:50;7.80;82.50
22212;DHT22;11275;52.488;13.462;2023-03-01T15:40:00;7.80;83.80
22212;DHT22;11275;52.488;13.462;2023-03-01T15:47:40;7.90;83.80
22212;DHT22;11275;52.488;13.462;2023-03-01T15:50:11;7.80;84.70
22212;DHT22;11275;52.488;13.462;2023-03-01T15:52:41;7.80;85.50
22212;DHT22;11275;52.488;13.462;2023-03-01T15:55:15;7.80;84.90
22212;DHT22;11275;52.488;13.462;2023-03-01T15:57:41;7.80;84.20
22212;DHT22;11275;52.488;13.462;2023-03-01T16:00:09;7.80;84.90
22212;DHT22;11275;52.488;13.462;2023-03-01T16:02:42;7.80;85.50
22212;DHT22;11275;52.488;13.462;2023-03-01T16:05:27;7.80;85.80
22212;DHT22;11275;52.488;13.462;2023-03-01T16:07:53;7.70;86.00
22212;DHT22;11275;52.488;13.462;2023-03-01T16:10:19;7.70;86.80
22212;DHT22;11275;52.488;13.462;2023-03-01T16:12:44;7.70;86.50
22212;DHT22;11275;52.488;13.462;2023-03-01T16:15:16;7.60;87.30
22212;DHT22;11275;52.488;13.462;2023-03-01T16:17:43;7.70;88.00
22212;DHT22;11275;52.488;13.462;2023-03-01T16:20:09;7.60;88.20
22212;DHT22;11275;52.488;13.462;2023-03-01T16:22:34;7.60;87.80
22212;DHT22;11275;52.488;13.462;2023-03-01T16:25:00;7.60;87.60
22212;DHT22;11275;52.488;13.462;2023-03-01T16:27:27;7.50;88.50
22212;DHT22;11275;52.488;13.462;2023-03-01T16:29:53;7.50;88.80
22212;DHT22;11275;52.488;13.462;2023-03-01T16:32:18;7.40;88.70
22212;DHT22;11275;52.488;13.462;2023-03-01T16:34:44;7.40;89.20
22212;DHT22;11275;52.488;13.462;2023-03-01T16:37:09;7.30;89.30
22212;DHT22;11275;52.488;13.462;2023-03-01T16:39:37;7.30;89.50
22212;DHT22;11275;52.488;13.462;2023-03-01T16:42:03;7.20;90.00
22212;DHT22;11275;52.488;13.462;2023-03-01T16:44:28;7.20;90.10
22212;DHT22;11275;52.488;13.462;2023-03-01T16:46:54;7.20;90.30
22212;DHT22;11275;52.488;13.462;2023-03-01T16:49:19;7.20;90.50
22212;DHT22;11275;52.488;13.462;2023-03-01T16:51:45;7.10;90.40
22212;DHT22;11275;52.488;13.462;2023-03-01T16:54:10;7.10;90.50
22212;DHT22;11275;52.488;13.462;2023-03-01T16:56:36;7.10;90.70
22212;DHT22;11275;52.488;13.462;2023-03-01T16:59:03;7.10;90.70
22212;DHT22;11275;52.488;13.462;2023-03-01T17:01:30;7.00;90.80
22212;DHT22;11275;52.488;13.462;2023-03-01T17:04:03;7.00;90.80
22212;DHT22;11275;52.488;13.462;2023-03-01T17:06:28;6.90;90.90
22212;DHT22;11275;52.488;13.462;2023-03-01T17:08:54;6.90;91.00
22212;DHT22;11275;52.488;13.462;2023-03-01T17:11:19;6.90;91.10
22212;DHT22;11275;52.488;13.462;2023-03-01T17:13:45;6.90;91.20
22212;DHT22;11275;52.488;13.462;2023-03-01T17:16:13;6.80;91.20
22212;DHT22;11275;52.488;13.462;2023-03-01T17:18:39;6.80;91.30
22212;DHT22;11275;52.488;13.462;2023-03-01T17:21:05;6.70;91.50
22212;DHT22;11275;52.488;13.462;2023-03-01T17:23:31;6.70;91.60
22212;DHT22;11275;52.488;13.462;2023-03-01T17:25:57;6.70;91.60
22212;DHT22;11275;52.488;13.462;2023-03-01T17:28:23;6.60;91.70
22212;DHT22;11275;52.488;13.462;2023-03-01T17:30:49;6.60;91.80